sensor_id;sensor_type;location;lat;lon;timestamp;P1;durP1;ratioP1;P2;durP2;ratioP2
18653;SDS011;9456;47.824;16.228;2023-06-26T00:01:55;12.57;;;11.37;;
18653;SDS011;9456;47.824;16.228;2023-06-26T00:04:23;13.87;;;12.47;;
18653;SDS011;9456;47.824;16.228;2023-06-26T00:06:52;14.13;;;12.67;;
18653;SDS011;9456;47.824;16.228;2023-06-26T00:09:21;13.27;;;11.53;;
18653;SDS011;9456;47.824;16.228;2023-06-26T00:11:50;13.37;;;12.03;;
18653;SDS011;9456;47.824;16.228;2023-06-26T00:14:19;14.50;;;12.03;;
18653;SDS011;9456;47.824;16.228;2023-06-26T00:16:48;14.00;;;12.60;;
18653;SDS011;9456;47.824;16.228;2023-06-26T00:19:17;14.07;;;12.67;;
18653;SDS011;9456;47.824;16.228;2023-06-26T00:21:46;15.60;;;14.00;;
18653;SDS011;9456;47.824;16.228;2023-06-26T00:24:15;14.50;;;12.70;;
18653;SDS011;9456;47.824;16.228;2023-06-26T00:26:45;15.13;;;13.60;;
18653;SDS011;9456;47.824;16.228;2023-06-26T00:29:14;15.27;;;13.70;;
18653;SDS011;9456;47.824;16.228;2023-06-26T00:31:43;14.87;;;13.43;;
18653;SDS011;9456;47.824;16.228;2023-06-26T00:34:12;15.33;;;13.73;;
18653;SDS011;9456;47.824;16.228;2023-06-26T00:36:40;15.07;;;13.60;;
18653;SDS011;9456;47.824;16.228;2023-06-26T00:39:10;14.97;;;13.53;;
18653;SDS011;9456;47.824;16.228;2023-06-26T00:41:39;15.07;;;13.50;;
18653;SDS011;9456;47.824;16.228;2023-06-26T00:44:07;15.20;;;13.70;;
18653;SDS011;9456;47.824;16.228;2023-06-26T00:46:36;14.67;;;13.07;;
18653;SDS011;9456;47.824;16.228;2023-06-26T00:49:06;14.93;;;13.43;;
18653;SDS011;9456;47.824;16.228;2023-06-26T00:51:34;16.60;;;14.87;;
18653;SDS011;9456;47.824;16.228;2023-06-26T00:54:03;16.73;;;15.03;;
18653;SDS011;9456;47.824;16.228;2023-06-26T00:56:32;16.90;;;15.30;;
18653;SDS011;9456;47.824;16.228;2023-06-26T00:59:01;16.30;;;14.60;;
18653;SDS011;9456;47.824;16.228;2023-06-26T01:01:30;15.63;;;14.03;;
18653;SDS011;9456;47.824;16.228;2023-06-26T01:03:59;15.83;;;14.23;;
18653;SDS011;9456;47.824;16.228;2023-06-26T01:06:28;16.33;;;14.63;;
18653;SDS011;9456;47.824;16.228;2023-06-26T01:08:58;16.03;;;14.43;;
18653;SDS011;9456;47.824;16.228;2023-06-26T01:11:27;16.70;;;15.20;;
18653;SDS011;9456;47.824;16.228;2023-06-26T01:13:56;18.23;;;16.33;;
18653;SDS011;9456;47.824;16.228;2023-06-26T01:16:25;17.50;;;15.53;;
18653;SDS011;9456;47.824;16.228;2023-06-26T01:18:54;16.53;;;14.87;;
18653;SDS011;9456;47.824;16.228;2023-06-26T01:21:22;17.37;;;15.50;;
18653;SDS011;9456;47.824;16.228;2023-06-26T01:24:02;17.73;;;15.93;;
18653;SDS011;9456;47.824;16.228;2023-06-26T01:26:29;17.00;;;15.20;;
18653;SDS011;9456;47.824;16.228;2023-06-26T01:28:58;16.57;;;14.93;;
18653;SDS011;9456;47.824;16.228;2023-06-26T01:31:27;20.07;;;16.10;;
18653;SDS011;9456;47.824;16.228;2023-06-26T01:33:56;17.10;;;15.40;;
18653;SDS011;9456;47.824;16.228;2023-06-26T01:36:25;17.00;;;15.30;;
18653;SDS011;9456;47.824;16.228;2023-06-26T01:38:54;20.13;;;17.10;;
18653;SDS011;9456;47.824;16.228;2023-06-26T01:41:23;18.07;;;16.23;;
18653;SDS011;9456;47.824;16.228;2023-06-26T01:44:00;18.33;;;15.93;;
18653;SDS011;9456;47.824;16.228;2023-06-26T01:46:39;17.90;;;16.20;;
18653;SDS011;9456;47.824;16.228;2023-06-26T01:49:02;16.87;;;15.27;;
18653;SDS011;9456;47.824;16.228;2023-06-26T01:51:32;19.17;;;16.37;;
18653;SDS011;9456;47.824;16.228;2023-06-26T01:53:59;16.60;;;15.03;;
18653;SDS011;9456;47.824;16.228;2023-06-26T01:56:28;17.80;;;16.00;;
18653;SDS011;9456;47.824;16.228;2023-06-26T01:58:57;18.27;;;15.83;;
18653;SDS011;9456;47.824;16.228;2023-06-26T02:01:26;16.73;;;15.13;;
18653;SDS011;9456;47.824;16.228;2023-06-26T02:03:55;18.37;;;16.47;;
18653;SDS011;9456;47.824;16.228;2023-06-26T02:06:24;17.60;;;15.80;;
18653;SDS011;9456;47.824;16.228;2023-06-26T02:08:53;20.27;;;16.40;;
18653;SDS011;9456;47.824;16.228;2023-06-26T02:11:22;17.37;;;15.57;;
18653;SDS011;9456;47.824;16.228;2023-06-26T02:13:51;18.53;;;16.73;;
18653;SDS011;9456;47.824;16.228;2023-06-26T02:16:20;17.67;;;15.97;;
18653;SDS011;9456;47.824;16.228;2023-06-26T02:18:49;18.57;;;16.67;;
18653;SDS011;9456;47.824;16.228;2023-06-26T02:21:18;18.23;;;16.33;;
18653;SDS011;9456;47.824;16.228;2023-06-26T02:23:46;19.23;;;16.27;;
18653;SDS011;9456;47.824;16.228;2023-06-26T02:26:15;17.03;;;15.17;;
18653;SDS011;9456;47.824;16.228;2023-06-26T02:28:44;17.63;;;15.80;;
18653;SDS011;9456;47.824;16.228;2023-06-26T02:31:13;18.10;;;16.00;;
18653;SDS011;9456;47.824;16.228;2023-06-26T02:33:42;18.13;;;16.33;;
18653;SDS011;9456;47.824;16.228;2023-06-26T02:36:11;16.70;;;14.97;;
18653;SDS011;9456;47.824;16.228;2023-06-26T02:38:40;17.57;;;15.90;;
18653;SDS011;9456;47.824;16.228;2023-06-26T02:41:09;16.43;;;14.87;;
18653;SDS011;9456;47.824;16.228;2023-06-26T02:43:38;17.50;;;15.63;;
18653;SDS011;9456;47.824;16.228;2023-06-26T02:46:07;15.63;;;14.17;;
18653;SDS011;9456;47.824;16.228;2023-06-26T02:48:36;19.73;;;16.20;;
18653;SDS011;9456;47.824;16.228;2023-06-26T02:51:05;17.47;;;15.77;;
18653;SDS011;9456;47.824;16.228;2023-06-26T02:53:34;16.63;;;14.80;;
18653;SDS011;9456;47.824;16.228;2023-06-26T02:56:03;18.17;;;15.20;;
18653;SDS011;9456;47.824;16.228;2023-06-26T02:58:32;16.50;;;14.73;;
18653;SDS011;9456;47.824;16.228;2023-06-26T03:01:01;17.17;;;15.37;;
18653;SDS011;9456;47.824;16.228;2023-06-26T03:03:30;16.43;;;14.57;;
18653;SDS011;9456;47.824;16.228;2023-06-26T03:06:00;16.47;;;14.87;;
18653;SDS011;9456;47.824;16.228;2023-06-26T03:08:28;18.00;;;14.53;;
18653;SDS011;9456;47.824;16.228;2023-06-26T03:10:57;16.47;;;14.87;;
18653;SDS011;9456;47.824;16.228;2023-06-26T03:13:26;17.40;;;15.70;;
18653;SDS011;9456;47.824;16.228;2023-06-26T03:15:55;17.70;;;15.80;;
18653;SDS011;9456;47.824;16.228;2023-06-26T03:18:24;16.77;;;14.97;;
18653;SDS011;9456;47.824;16.228;2023-06-26T03:20:53;16.93;;;15.07;;
18653;SDS011;9456;47.824;16.228;2023-06-26T03:23:22;23.47;;;15.50;;
18653;SDS011;9456;47.824;16.228;2023-06-26T03:25:51;17.23;;;15.53;;
18653;SDS011;9456;47.824;16.228;2023-06-26T03:28:20;21.03;;;16.17;;
18653;SDS011;9456;47.824;16.228;2023-06-26T03:30:48;16.73;;;14.93;;
18653;SDS011;9456;47.824;16.228;2023-06-26T03:33:17;19.07;;;17.03;;
18653;SDS011;9456;47.824;16.228;2023-06-26T03:35:46;17.80;;;16.10;;
18653;SDS011;9456;47.824;16.228;2023-06-26T03:38:15;17.13;;;15.47;;
18653;SDS011;9456;47.824;16.228;2023-06-26T03:40:44;18.87;;;15.90;;
18653;SDS011;9456;47.824;16.228;2023-06-26T03:43:13;17.83;;;16.03;;
18653;SDS011;9456;47.824;16.228;2023-06-26T03:45:42;17.90;;;16.20;;
18653;SDS011;9456;47.824;16.228;2023-06-26T03:48:11;16.57;;;15.07;;
18653;SDS011;9456;47.824;16.228;2023-06-26T03:50:40;18.07;;;15.13;;
18653;SDS011;9456;47.824;16.228;2023-06-26T03:53:09;18.30;;;16.30;;
18653;SDS011;9456;47.824;16.228;2023-06-26T03:55:38;17.40;;;15.47;;
18653;SDS011;9456;47.824;16.228;2023-06-26T03:58:06;17.63;;;15.83;;
18653;SDS011;9456;47.824;16.228;2023-06-26T04:00:35;15.50;;;14.03;;
18653;SDS011;9456;47.824;16.228;2023-06-26T04:03:04;16.00;;;14.30;;
18653;SDS011;9456;47.824;16.228;2023-06-26T04:05:33;16.63;;;14.90;;
18653;SDS011;9456;47.824;16.228;2023-06-26T04:08:03;15.53;;;14.03;;
18653;SDS011;9456;47.824;16.228;2023-06-26T04:10:32;17.03;;;14.13;;
18653;SDS011;9456;47.824;16.228;2023-06-26T04:13:01;15.03;;;13.23;;
18653;SDS011;9456;47.824;16.228;2023-06-26T04:15:30;15.07;;;13.47;;
18653;SDS011;9456;47.824;16.228;2023-06-26T04:17:59;16.83;;;13.27;;
18653;SDS011;9456;47.824;16.228;2023-06-26T04:20:28;15.27;;;12.97;;
18653;SDS011;9456;47.824;16.228;2023-06-26T04:22:57;14.93;;;13.17;;
18653;SDS011;9456;47.824;16.228;2023-06-26T04:25:25;16.70;;;14.40;;
18653;SDS011;9456;47.824;16.228;2023-06-26T04:27:55;15.53;;;14.00;;
18653;SDS011;9456;47.824;16.228;2023-06-26T04:30:24;14.10;;;12.50;;
18653;SDS011;9456;47.824;16.228;2023-06-26T04:32:53;14.43;;;12.73;;
18653;SDS011;9456;47.824;16.228;2023-06-26T04:35:21;16.47;;;12.50;;
18653;SDS011;9456;47.824;16.228;2023-06-26T04:37:50;13.73;;;12.23;;
18653;SDS011;9456;47.824;16.228;2023-06-26T04:40:19;15.70;;;12.93;;
18653;SDS011;9456;47.824;16.228;2023-06-26T04:42:48;14.50;;;13.07;;
18653;SDS011;9456;47.824;16.228;2023-06-26T04:45:17;15.00;;;13.60;;
18653;SDS011;9456;47.824;16.228;2023-06-26T04:47:46;14.67;;;13.27;;
18653;SDS011;9456;47.824;16.228;2023-06-26T04:50:15;13.67;;;11.50;;
18653;SDS011;9456;47.824;16.228;2023-06-26T04:52:44;15.60;;;11.93;;
18653;SDS011;9456;47.824;16.228;2023-06-26T04:55:13;13.33;;;12.00;;
18653;SDS011;9456;47.824;16.228;2023-06-26T04:57:42;13.07;;;11.27;;
18653;SDS011;9456;47.824;16.228;2023-06-26T05:00:13;13.50;;;11.60;;
18653;SDS011;9456;47.824;16.228;2023-06-26T05:02:42;12.37;;;10.53;;
18653;SDS011;9456;47.824;16.228;2023-06-26T05:05:11;12.93;;;10.80;;
18653;SDS011;9456;47.824;16.228;2023-06-26T05:07:41;11.10;;;10.00;;
18653;SDS011;9456;47.824;16.228;2023-06-26T05:10:10;13.33;;;10.43;;
18653;SDS011;9456;47.824;16.228;2023-06-26T05:12:39;14.07;;;10.23;;
18653;SDS011;9456;47.824;16.228;2023-06-26T05:15:09;10.57;;;9.47;;
18653;SDS011;9456;47.824;16.228;2023-06-26T05:17:38;12.13;;;9.70;;
18653;SDS011;9456;47.824;16.228;2023-06-26T05:20:08;10.77;;;9.43;;
18653;SDS011;9456;47.824;16.228;2023-06-26T05:22:38;11.10;;;10.00;;
18653;SDS011;9456;47.824;16.228;2023-06-26T05:25:08;13.00;;;9.83;;
18653;SDS011;9456;47.824;16.228;2023-06-26T05:27:38;10.83;;;9.43;;
18653;SDS011;9456;47.824;16.228;2023-06-26T05:30:09;9.93;;;8.90;;
18653;SDS011;9456;47.824;16.228;2023-06-26T05:32:39;10.10;;;9.10;;
18653;SDS011;9456;47.824;16.228;2023-06-26T05:35:08;13.03;;;10.17;;
18653;SDS011;9456;47.824;16.228;2023-06-26T05:37:37;10.43;;;9.33;;
18653;SDS011;9456;47.824;16.228;2023-06-26T05:40:07;11.00;;;9.00;;
18653;SDS011;9456;47.824;16.228;2023-06-26T05:42:40;12.57;;;9.53;;
18653;SDS011;9456;47.824;16.228;2023-06-26T05:45:10;15.17;;;9.23;;
18653;SDS011;9456;47.824;16.228;2023-06-26T05:47:39;10.47;;;9.40;;
18653;SDS011;9456;47.824;16.228;2023-06-26T05:50:09;10.00;;;8.90;;
18653;SDS011;9456;47.824;16.228;2023-06-26T05:52:39;10.77;;;9.30;;
18653;SDS011;9456;47.824;16.228;2023-06-26T05:55:11;10.00;;;8.20;;
18653;SDS011;9456;47.824;16.228;2023-06-26T05:57:42;10.13;;;8.27;;
18653;SDS011;9456;47.824;16.228;2023-06-26T06:00:12;11.77;;;8.60;;
18653;SDS011;9456;47.824;16.228;2023-06-26T06:02:42;10.67;;;9.50;;
18653;SDS011;9456;47.824;16.228;2023-06-26T06:05:10;12.50;;;8.77;;
18653;SDS011;9456;47.824;16.228;2023-06-26T06:07:39;10.67;;;8.90;;
18653;SDS011;9456;47.824;16.228;2023-06-26T06:10:09;11.97;;;8.30;;
18653;SDS011;9456;47.824;16.228;2023-06-26T06:12:38;10.00;;;8.53;;
18653;SDS011;9456;47.824;16.228;2023-06-26T06:15:08;9.47;;;8.37;;
18653;SDS011;9456;47.824;16.228;2023-06-26T06:17:37;11.37;;;8.23;;
18653;SDS011;9456;47.824;16.228;2023-06-26T06:20:06;12.30;;;7.90;;
18653;SDS011;9456;47.824;16.228;2023-06-26T06:22:36;16.30;;;8.30;;
18653;SDS011;9456;47.824;16.228;2023-06-26T06:25:06;13.17;;;8.37;;
18653;SDS011;9456;47.824;16.228;2023-06-26T06:27:36;11.50;;;8.60;;
18653;SDS011;9456;47.824;16.228;2023-06-26T06:30:06;13.23;;;8.87;;
18653;SDS011;9456;47.824;16.228;2023-06-26T06:32:36;13.43;;;8.73;;
18653;SDS011;9456;47.824;16.228;2023-06-26T06:35:06;12.13;;;7.93;;
18653;SDS011;9456;47.824;16.228;2023-06-26T06:37:36;9.80;;;6.77;;
18653;SDS011;9456;47.824;16.228;2023-06-26T06:40:06;15.00;;;6.80;;
18653;SDS011;9456;47.824;16.228;2023-06-26T06:42:35;6.27;;;5.73;;
18653;SDS011;9456;47.824;16.228;2023-06-26T06:45:05;5.70;;;5.20;;
18653;SDS011;9456;47.824;16.228;2023-06-26T06:47:35;5.30;;;4.80;;
18653;SDS011;9456;47.824;16.228;2023-06-26T06:50:04;5.17;;;4.77;;
18653;SDS011;9456;47.824;16.228;2023-06-26T06:52:36;4.63;;;4.23;;
18653;SDS011;9456;47.824;16.228;2023-06-26T06:55:06;7.07;;;4.80;;
18653;SDS011;9456;47.824;16.228;2023-06-26T06:57:36;6.07;;;4.80;;
18653;SDS011;9456;47.824;16.228;2023-06-26T07:00:06;6.40;;;5.07;;
18653;SDS011;9456;47.824;16.228;2023-06-26T07:02:35;6.37;;;5.33;;
18653;SDS011;9456;47.824;16.228;2023-06-26T07:05:05;6.73;;;5.30;;
18653;SDS011;9456;47.824;16.228;2023-06-26T07:07:34;6.03;;;5.53;;
18653;SDS011;9456;47.824;16.228;2023-06-26T07:10:03;7.77;;;6.00;;
18653;SDS011;9456;47.824;16.228;2023-06-26T07:12:32;7.23;;;5.83;;
18653;SDS011;9456;47.824;16.228;2023-06-26T07:15:01;7.10;;;6.17;;
18653;SDS011;9456;47.824;16.228;2023-06-26T07:17:30;6.10;;;5.60;;
18653;SDS011;9456;47.824;16.228;2023-06-26T07:19:59;6.40;;;5.80;;
18653;SDS011;9456;47.824;16.228;2023-06-26T07:22:28;7.13;;;6.53;;
18653;SDS011;9456;47.824;16.228;2023-06-26T07:24:57;7.90;;;6.33;;
18653;SDS011;9456;47.824;16.228;2023-06-26T07:27:26;7.00;;;6.10;;
18653;SDS011;9456;47.824;16.228;2023-06-26T07:29:55;7.85;;;7.00;;
18653;SDS011;9456;47.824;16.228;2023-06-26T07:32:24;7.53;;;6.43;;
18653;SDS011;9456;47.824;16.228;2023-06-26T07:34:53;7.23;;;6.07;;
18653;SDS011;9456;47.824;16.228;2023-06-26T07:37:21;5.67;;;5.17;;
18653;SDS011;9456;47.824;16.228;2023-06-26T07:39:50;6.60;;;5.93;;
18653;SDS011;9456;47.824;16.228;2023-06-26T07:42:20;6.27;;;5.67;;
18653;SDS011;9456;47.824;16.228;2023-06-26T07:44:49;7.30;;;5.70;;
18653;SDS011;9456;47.824;16.228;2023-06-26T07:47:18;6.60;;;5.90;;
18653;SDS011;9456;47.824;16.228;2023-06-26T07:49:47;6.50;;;5.53;;
18653;SDS011;9456;47.824;16.228;2023-06-26T07:52:16;6.27;;;5.67;;
18653;SDS011;9456;47.824;16.228;2023-06-26T07:54:44;8.13;;;5.70;;
18653;SDS011;9456;47.824;16.228;2023-06-26T07:57:14;7.97;;;5.17;;
18653;SDS011;9456;47.824;16.228;2023-06-26T07:59:43;6.33;;;5.73;;
18653;SDS011;9456;47.824;16.228;2023-06-26T08:02:12;5.77;;;5.23;;
18653;SDS011;9456;47.824;16.228;2023-06-26T08:04:41;5.90;;;5.40;;
18653;SDS011;9456;47.824;16.228;2023-06-26T08:07:10;7.57;;;5.70;;
18653;SDS011;9456;47.824;16.228;2023-06-26T08:09:38;6.47;;;5.80;;
18653;SDS011;9456;47.824;16.228;2023-06-26T08:12:08;6.43;;;5.63;;
18653;SDS011;9456;47.824;16.228;2023-06-26T08:14:37;6.37;;;5.63;;
18653;SDS011;9456;47.824;16.228;2023-06-26T08:17:05;7.10;;;6.10;;
18653;SDS011;9456;47.824;16.228;2023-06-26T08:19:34;6.30;;;5.70;;
18653;SDS011;9456;47.824;16.228;2023-06-26T08:22:03;6.37;;;5.63;;
18653;SDS011;9456;47.824;16.228;2023-06-26T08:24:33;6.70;;;5.43;;
18653;SDS011;9456;47.824;16.228;2023-06-26T08:27:01;7.53;;;5.77;;
18653;SDS011;9456;47.824;16.228;2023-06-26T08:29:31;7.03;;;5.53;;
18653;SDS011;9456;47.824;16.228;2023-06-26T08:32:00;9.07;;;5.20;;
18653;SDS011;9456;47.824;16.228;2023-06-26T08:34:29;8.70;;;5.83;;
18653;SDS011;9456;47.824;16.228;2023-06-26T08:36:58;11.27;;;6.13;;
18653;SDS011;9456;47.824;16.228;2023-06-26T08:39:27;7.47;;;5.77;;
18653;SDS011;9456;47.824;16.228;2023-06-26T08:41:56;8.03;;;5.60;;
18653;SDS011;9456;47.824;16.228;2023-06-26T08:44:25;7.73;;;5.77;;
18653;SDS011;9456;47.824;16.228;2023-06-26T08:46:54;6.70;;;6.00;;
18653;SDS011;9456;47.824;16.228;2023-06-26T10:22:57;5.97;;;5.37;;
18653;SDS011;9456;47.824;16.228;2023-06-26T10:25:26;5.93;;;5.43;;
18653;SDS011;9456;47.824;16.228;2023-06-26T10:27:57;5.80;;;5.30;;
18653;SDS011;9456;47.824;16.228;2023-06-26T10:30:27;5.90;;;5.40;;
18653;SDS011;9456;47.824;16.228;2023-06-26T10:32:55;6.03;;;5.33;;
18653;SDS011;9456;47.824;16.228;2023-06-26T10:35:24;6.03;;;5.43;;
18653;SDS011;9456;47.824;16.228;2023-06-26T10:37:54;5.77;;;5.27;;
18653;SDS011;9456;47.824;16.228;2023-06-26T10:40:24;6.57;;;5.97;;
18653;SDS011;9456;47.824;16.228;2023-06-26T10:42:57;6.17;;;5.30;;
18653;SDS011;9456;47.824;16.228;2023-06-26T10:45:35;6.30;;;4.97;;
18653;SDS011;9456;47.824;16.228;2023-06-26T10:48:06;5.53;;;4.90;;
18653;SDS011;9456;47.824;16.228;2023-06-26T10:50:35;5.30;;;4.80;;
18653;SDS011;9456;47.824;16.228;2023-06-26T10:53:11;5.67;;;4.60;;
18653;SDS011;9456;47.824;16.228;2023-06-26T10:55:47;7.13;;;4.90;;
18653;SDS011;9456;47.824;16.228;2023-06-26T10:58:28;6.40;;;5.70;;
18653;SDS011;9456;47.824;16.228;2023-06-26T11:01:19;6.37;;;5.50;;
18653;SDS011;9456;47.824;16.228;2023-06-26T11:04:00;5.53;;;5.00;;
18653;SDS011;9456;47.824;16.228;2023-06-26T11:06:29;7.67;;;4.70;;
18653;SDS011;9456;47.824;16.228;2023-06-26T11:09:00;5.47;;;4.67;;
18653;SDS011;9456;47.824;16.228;2023-06-26T11:14:26;4.97;;;4.57;;
18653;SDS011;9456;47.824;16.228;2023-06-26T11:16:56;4.67;;;4.20;;
18653;SDS011;9456;47.824;16.228;2023-06-26T11:19:26;5.00;;;4.60;;
18653;SDS011;9456;47.824;16.228;2023-06-26T11:22:04;6.73;;;4.40;;
18653;SDS011;9456;47.824;16.228;2023-06-26T11:24:34;5.20;;;4.70;;
18653;SDS011;9456;47.824;16.228;2023-06-26T11:27:04;4.90;;;4.40;;
18653;SDS011;9456;47.824;16.228;2023-06-26T11:29:32;4.70;;;4.30;;
18653;SDS011;9456;47.824;16.228;2023-06-26T11:32:02;6.53;;;4.90;;
18653;SDS011;9456;47.824;16.228;2023-06-26T11:34:34;4.97;;;4.57;;
18653;SDS011;9456;47.824;16.228;2023-06-26T11:37:03;5.37;;;4.87;;
18653;SDS011;9456;47.824;16.228;2023-06-26T11:39:33;5.53;;;4.60;;
18653;SDS011;9456;47.824;16.228;2023-06-26T11:42:02;5.17;;;4.53;;
18653;SDS011;9456;47.824;16.228;2023-06-26T11:44:31;16.63;;;5.27;;
18653;SDS011;9456;47.824;16.228;2023-06-26T11:47:01;5.67;;;4.77;;
18653;SDS011;9456;47.824;16.228;2023-06-26T11:49:33;6.20;;;5.40;;
18653;SDS011;9456;47.824;16.228;2023-06-26T11:52:03;5.70;;;5.20;;
18653;SDS011;9456;47.824;16.228;2023-06-26T11:54:33;5.47;;;5.07;;
18653;SDS011;9456;47.824;16.228;2023-06-26T11:57:02;6.43;;;5.10;;
18653;SDS011;9456;47.824;16.228;2023-06-26T11:59:35;4.97;;;4.53;;
18653;SDS011;9456;47.824;16.228;2023-06-26T12:02:07;6.13;;;4.47;;
18653;SDS011;9456;47.824;16.228;2023-06-26T12:04:36;4.73;;;4.23;;
18653;SDS011;9456;47.824;16.228;2023-06-26T12:07:05;5.10;;;4.70;;
18653;SDS011;9456;47.824;16.228;2023-06-26T12:09:34;5.37;;;4.83;;
18653;SDS011;9456;47.824;16.228;2023-06-26T12:12:07;7.37;;;5.23;;
18653;SDS011;9456;47.824;16.228;2023-06-26T12:14:36;6.00;;;4.80;;
18653;SDS011;9456;47.824;16.228;2023-06-26T12:17:08;10.63;;;5.50;;
18653;SDS011;9456;47.824;16.228;2023-06-26T12:19:37;6.93;;;5.13;;
18653;SDS011;9456;47.824;16.228;2023-06-26T12:22:07;5.53;;;5.03;;
18653;SDS011;9456;47.824;16.228;2023-06-26T12:24:37;5.13;;;4.53;;
18653;SDS011;9456;47.824;16.228;2023-06-26T12:27:08;6.57;;;5.20;;
18653;SDS011;9456;47.824;16.228;2023-06-26T12:29:38;5.57;;;5.03;;
18653;SDS011;9456;47.824;16.228;2023-06-26T12:32:09;5.50;;;5.00;;
18653;SDS011;9456;47.824;16.228;2023-06-26T12:34:38;6.20;;;4.90;;
18653;SDS011;9456;47.824;16.228;2023-06-26T12:37:07;7.90;;;4.80;;
18653;SDS011;9456;47.824;16.228;2023-06-26T12:39:49;6.30;;;5.80;;
18653;SDS011;9456;47.824;16.228;2023-06-26T12:42:18;5.57;;;5.00;;
18653;SDS011;9456;47.824;16.228;2023-06-26T12:44:46;5.93;;;4.97;;
18653;SDS011;9456;47.824;16.228;2023-06-26T12:47:16;5.57;;;5.07;;
18653;SDS011;9456;47.824;16.228;2023-06-26T12:49:45;6.00;;;5.40;;
18653;SDS011;9456;47.824;16.228;2023-06-26T12:52:14;5.53;;;5.03;;
18653;SDS011;9456;47.824;16.228;2023-06-26T12:54:43;7.27;;;5.87;;
18653;SDS011;9456;47.824;16.228;2023-06-26T12:57:12;5.80;;;5.27;;
18653;SDS011;9456;47.824;16.228;2023-06-26T12:59:41;5.33;;;4.63;;
18653;SDS011;9456;47.824;16.228;2023-06-26T13:02:10;5.47;;;5.00;;
18653;SDS011;9456;47.824;16.228;2023-06-26T13:04:39;6.33;;;5.73;;
18653;SDS011;9456;47.824;16.228;2023-06-26T13:07:08;5.80;;;5.30;;
18653;SDS011;9456;47.824;16.228;2023-06-26T13:09:37;5.67;;;5.17;;
18653;SDS011;9456;47.824;16.228;2023-06-26T13:12:06;17.83;;;6.00;;
18653;SDS011;9456;47.824;16.228;2023-06-26T13:14:36;14.07;;;5.33;;
18653;SDS011;9456;47.824;16.228;2023-06-26T13:17:05;6.40;;;5.37;;
18653;SDS011;9456;47.824;16.228;2023-06-26T13:19:34;5.90;;;5.40;;
18653;SDS011;9456;47.824;16.228;2023-06-26T13:22:03;5.87;;;5.27;;
18653;SDS011;9456;47.824;16.228;2023-06-26T13:24:33;5.67;;;5.17;;
18653;SDS011;9456;47.824;16.228;2023-06-26T13:27:02;13.20;;;6.17;;
18653;SDS011;9456;47.824;16.228;2023-06-26T13:29:32;6.07;;;5.47;;
18653;SDS011;9456;47.824;16.228;2023-06-26T13:32:01;6.70;;;6.00;;
18653;SDS011;9456;47.824;16.228;2023-06-26T13:34:30;6.60;;;6.00;;
18653;SDS011;9456;47.824;16.228;2023-06-26T13:36:59;6.03;;;5.47;;
18653;SDS011;9456;47.824;16.228;2023-06-26T13:39:28;9.73;;;5.87;;
18653;SDS011;9456;47.824;16.228;2023-06-26T13:41:57;6.70;;;6.10;;
18653;SDS011;9456;47.824;16.228;2023-06-26T13:44:26;6.63;;;5.63;;
18653;SDS011;9456;47.824;16.228;2023-06-26T13:46:55;6.73;;;5.63;;
18653;SDS011;9456;47.824;16.228;2023-06-26T13:49:24;7.23;;;6.47;;
18653;SDS011;9456;47.824;16.228;2023-06-26T13:51:53;5.53;;;5.10;;
18653;SDS011;9456;47.824;16.228;2023-06-26T13:54:22;6.40;;;5.53;;
18653;SDS011;9456;47.824;16.228;2023-06-26T13:56:51;13.77;;;6.30;;
18653;SDS011;9456;47.824;16.228;2023-06-26T13:59:21;8.87;;;5.83;;
18653;SDS011;9456;47.824;16.228;2023-06-26T14:01:50;6.50;;;5.90;;
18653;SDS011;9456;47.824;16.228;2023-06-26T14:04:18;8.63;;;5.77;;
18653;SDS011;9456;47.824;16.228;2023-06-26T14:06:48;6.73;;;6.03;;
18653;SDS011;9456;47.824;16.228;2023-06-26T14:09:17;6.63;;;6.03;;
18653;SDS011;9456;47.824;16.228;2023-06-26T14:11:46;7.20;;;5.63;;
18653;SDS011;9456;47.824;16.228;2023-06-26T14:14:15;6.97;;;6.23;;
18653;SDS011;9456;47.824;16.228;2023-06-26T14:16:43;6.70;;;6.10;;
18653;SDS011;9456;47.824;16.228;2023-06-26T14:19:12;6.07;;;5.57;;
18653;SDS011;9456;47.824;16.228;2023-06-26T14:21:41;8.00;;;5.80;;
18653;SDS011;9456;47.824;16.228;2023-06-26T14:24:10;6.53;;;5.83;;
18653;SDS011;9456;47.824;16.228;2023-06-26T14:26:39;6.57;;;5.93;;
18653;SDS011;9456;47.824;16.228;2023-06-26T14:29:08;6.80;;;6.10;;
18653;SDS011;9456;47.824;16.228;2023-06-26T14:31:37;7.17;;;6.53;;
18653;SDS011;9456;47.824;16.228;2023-06-26T14:34:06;6.13;;;5.57;;
18653;SDS011;9456;47.824;16.228;2023-06-26T14:36:35;7.47;;;5.93;;
18653;SDS011;9456;47.824;16.228;2023-06-26T14:39:03;8.40;;;6.40;;
18653;SDS011;9456;47.824;16.228;2023-06-26T14:41:32;8.20;;;6.00;;
18653;SDS011;9456;47.824;16.228;2023-06-26T14:44:01;8.90;;;6.50;;
18653;SDS011;9456;47.824;16.228;2023-06-26T14:46:30;6.93;;;6.17;;
18653;SDS011;9456;47.824;16.228;2023-06-26T14:48:59;7.00;;;5.93;;
18653;SDS011;9456;47.824;16.228;2023-06-26T14:51:28;6.90;;;6.20;;
18653;SDS011;9456;47.824;16.228;2023-06-26T14:53:57;6.93;;;6.10;;
18653;SDS011;9456;47.824;16.228;2023-06-26T14:56:27;6.20;;;5.60;;
18653;SDS011;9456;47.824;16.228;2023-06-26T14:58:56;7.53;;;6.30;;
18653;SDS011;9456;47.824;16.228;2023-06-26T15:01:25;7.87;;;6.50;;
18653;SDS011;9456;47.824;16.228;2023-06-26T15:03:54;6.50;;;5.90;;
18653;SDS011;9456;47.824;16.228;2023-06-26T15:06:23;8.93;;;6.20;;
18653;SDS011;9456;47.824;16.228;2023-06-26T15:08:51;6.00;;;5.50;;
18653;SDS011;9456;47.824;16.228;2023-06-26T15:11:20;6.23;;;5.67;;
18653;SDS011;9456;47.824;16.228;2023-06-26T15:13:49;6.87;;;6.13;;
18653;SDS011;9456;47.824;16.228;2023-06-26T15:16:18;7.47;;;6.23;;
18653;SDS011;9456;47.824;16.228;2023-06-26T15:18:47;7.20;;;6.50;;
18653;SDS011;9456;47.824;16.228;2023-06-26T15:21:16;6.53;;;5.93;;
18653;SDS011;9456;47.824;16.228;2023-06-26T15:23:45;6.13;;;5.63;;
18653;SDS011;9456;47.824;16.228;2023-06-26T15:26:14;6.23;;;5.10;;
18653;SDS011;9456;47.824;16.228;2023-06-26T15:28:43;6.33;;;5.70;;
18653;SDS011;9456;47.824;16.228;2023-06-26T15:31:12;6.30;;;5.70;;
18653;SDS011;9456;47.824;16.228;2023-06-26T15:33:41;5.70;;;5.27;;
18653;SDS011;9456;47.824;16.228;2023-06-26T15:36:10;6.50;;;5.77;;
18653;SDS011;9456;47.824;16.228;2023-06-26T15:38:39;5.77;;;5.27;;
18653;SDS011;9456;47.824;16.228;2023-06-26T15:41:08;5.97;;;5.47;;
18653;SDS011;9456;47.824;16.228;2023-06-26T15:43:37;6.17;;;5.63;;
18653;SDS011;9456;47.824;16.228;2023-06-26T15:46:05;6.47;;;5.77;;
18653;SDS011;9456;47.824;16.228;2023-06-26T15:48:34;6.40;;;5.80;;
18653;SDS011;9456;47.824;16.228;2023-06-26T15:51:03;5.83;;;5.33;;
18653;SDS011;9456;47.824;16.228;2023-06-26T15:53:36;6.30;;;5.70;;
18653;SDS011;9456;47.824;16.228;2023-06-26T15:56:06;7.07;;;6.37;;
18653;SDS011;9456;47.824;16.228;2023-06-26T15:58:35;6.17;;;5.57;;
18653;SDS011;9456;47.824;16.228;2023-06-26T16:01:03;7.07;;;5.77;;
18653;SDS011;9456;47.824;16.228;2023-06-26T16:03:33;6.13;;;5.53;;
18653;SDS011;9456;47.824;16.228;2023-06-26T16:06:03;6.17;;;5.57;;
18653;SDS011;9456;47.824;16.228;2023-06-26T16:08:32;6.30;;;5.77;;
18653;SDS011;9456;47.824;16.228;2023-06-26T16:11:01;6.00;;;5.47;;
18653;SDS011;9456;47.824;16.228;2023-06-26T16:13:30;6.67;;;6.07;;
18653;SDS011;9456;47.824;16.228;2023-06-26T16:15:59;6.10;;;5.60;;
18653;SDS011;9456;47.824;16.228;2023-06-26T16:18:28;6.03;;;5.30;;
18653;SDS011;9456;47.824;16.228;2023-06-26T16:20:57;6.83;;;5.80;;
18653;SDS011;9456;47.824;16.228;2023-06-26T16:23:25;6.60;;;6.00;;
18653;SDS011;9456;47.824;16.228;2023-06-26T16:25:54;5.90;;;5.40;;